In Rescue
 
Open Full Screen Window  High Contrast Mode
Wind Gusting 12 knots
07
October 07, 2022 3:50 PM EDT
Weather Information
Wind Direction
  350 °
Wind Speed
  07 kt (8 mph)
Wind Gust
  12 kt (14 mph)
Variable Wind
310°
020°
Altimeter
30.19 in
Visibility
10 SM
Temperature
19° C
66° F
Dewpoint
07° C
45° F
Humidity
46%
1hr Rain Fall
00.00 in.
24hr Rain Fall
00.00 in.
Sky Condition
Broken @ 5,000 ft
Scattered @ 4,200 ft
VFR

METAR KSYM 071950Z AUTO 35007G12KT 310V020 10SM SCT042 BKN050 19/07 A3019 RMK AO2

FAA Disclaimer: The data displayed is for advisory purposes only and is not to be used for flight planning or operations.